createdAt,value
2019-03-08T00:00:49.131Z,96820.19
2019-03-08T00:03:19.854Z,96817.25
2019-03-08T00:05:48.541Z,96826.50
2019-03-08T00:08:18.341Z,96818.36
2019-03-08T00:10:47.218Z,96816.31
2019-03-08T00:13:16.250Z,96811.53
2019-03-08T00:15:45.239Z,96796.55
2019-03-08T00:18:17.292Z,96818.29
2019-03-08T00:20:45.259Z,96801.72
2019-03-08T00:23:14.721Z,96804.44
2019-03-08T00:25:44.008Z,96808.30
2019-03-08T00:28:13.061Z,96822.12
2019-03-08T00:30:42.363Z,96816.78
2019-03-08T00:33:11.135Z,96808.92
2019-03-08T00:35:40.400Z,96825.40
2019-03-08T00:38:09.171Z,96821.58
2019-03-08T00:40:37.978Z,96814.97
2019-03-08T00:43:07.230Z,96785.10
2019-03-08T00:45:35.915Z,96828.73
2019-03-08T00:48:05.010Z,96822.52
2019-03-08T00:50:33.796Z,96813.67
2019-03-08T00:53:02.889Z,96824.90
2019-03-08T00:55:31.806Z,96810.67
2019-03-08T00:58:00.707Z,96817.80
2019-03-08T01:00:29.385Z,96835.92
2019-03-08T01:02:58.530Z,96705.48
2019-03-08T01:05:27.478Z,96835.23
2019-03-08T01:07:57.651Z,96843.33
2019-03-08T01:10:26.587Z,96843.02
2019-03-08T01:12:55.492Z,96843.21
2019-03-08T01:15:24.916Z,96865.30
2019-03-08T01:17:54.287Z,96864.12
2019-03-08T01:20:22.981Z,96874.23
2019-03-08T01:22:51.964Z,96859.70
2019-03-08T01:25:21.561Z,96861.01
2019-03-08T01:28:17.128Z,96843.44
2019-03-08T01:30:46.256Z,96838.06
2019-03-08T01:33:15.262Z,96861.01
2019-03-08T01:35:44.381Z,96866.88
2019-03-08T01:38:13.314Z,96859.65
2019-03-08T01:40:42.039Z,96852.45
2019-03-08T01:43:11.154Z,96846.58
2019-03-08T01:45:39.950Z,96854.73
2019-03-08T01:48:08.998Z,96859.98
2019-03-08T01:50:38.018Z,96868.85
2019-03-08T01:53:07.098Z,96840.21
2019-03-08T01:55:36.787Z,96836.75
2019-03-08T01:58:05.435Z,96854.17
2019-03-08T02:00:35.147Z,96876.41
2019-03-08T02:03:04.551Z,96859.91
2019-03-08T02:05:35.018Z,96862.84
2019-03-08T02:08:04.189Z,96863.55
2019-03-08T02:10:34.799Z,96854.28
2019-03-08T02:13:04.684Z,96863.74
2019-03-08T02:15:34.090Z,96863.55
2019-03-08T02:18:03.847Z,96854.38
2019-03-08T02:20:32.614Z,96866.46
2019-03-08T02:23:01.605Z,96863.98
2019-03-08T02:25:30.301Z,96849.30
2019-03-08T02:27:59.247Z,96866.92
2019-03-08T02:30:28.129Z,96867.38
2019-03-08T02:32:57.320Z,96857.41
2019-03-08T02:35:26.393Z,96903.17
2019-03-08T02:37:55.689Z,96862.58
2019-03-08T02:40:32.473Z,96873.08
2019-03-08T02:43:01.645Z,96877.72
2019-03-08T02:45:30.429Z,96896.12
2019-03-08T02:47:59.190Z,96901.19
2019-03-08T02:50:28.128Z,96894.77
2019-03-08T02:52:57.197Z,96892.53
2019-03-08T02:55:25.909Z,96908.00
2019-03-08T02:57:54.654Z,96893.70
2019-03-08T03:00:25.222Z,96913.33
2019-03-08T03:02:53.913Z,96913.75
2019-03-08T03:05:22.866Z,96913.59
2019-03-08T03:07:51.625Z,96904.51
2019-03-08T03:10:20.818Z,96905.95
2019-03-08T03:12:49.503Z,96916.10
2019-03-08T03:15:18.281Z,96920.18
2019-03-08T03:17:46.978Z,96932.95
2019-03-08T03:20:15.834Z,96921.75
2019-03-08T03:22:44.505Z,96939.58
2019-03-08T03:25:34.106Z,96945.69
2019-03-08T03:28:03.039Z,96955.83
2019-03-08T03:30:31.804Z,96945.94
2019-03-08T03:33:00.837Z,96950.56
2019-03-08T03:35:29.884Z,96972.67
2019-03-08T03:37:58.810Z,96974.45
2019-03-08T03:40:27.609Z,97002.70
2019-03-08T03:42:56.366Z,96989.55
2019-03-08T03:45:25.138Z,97002.64
2019-03-08T03:47:53.814Z,97006.47
2019-03-08T03:50:22.998Z,97004.00
2019-03-08T03:52:52.005Z,97010.06
2019-03-08T03:55:20.777Z,96986.91
2019-03-08T03:57:49.539Z,97018.68
2019-03-08T04:00:39.114Z,97010.54
2019-03-08T04:03:08.036Z,97060.44
2019-03-08T04:05:36.738Z,97021.65
2019-03-08T04:08:05.444Z,97033.36
2019-03-08T04:10:34.231Z,97064.59
2019-03-08T04:13:03.163Z,97044.00
2019-03-08T04:15:32.020Z,97049.02
2019-03-08T04:18:00.830Z,97050.16
2019-03-08T04:20:29.523Z,97057.80
2019-03-08T04:22:58.469Z,97053.65
2019-03-08T04:28:01.788Z,97062.06
2019-03-08T04:30:30.788Z,97053.11
2019-03-08T04:32:59.421Z,97067.72
2019-03-08T04:35:28.104Z,97074.94
2019-03-08T04:37:57.076Z,97085.21
2019-03-08T04:40:25.793Z,97061.83
2019-03-08T04:42:55.085Z,97079.41
2019-03-08T04:45:24.389Z,97086.66
2019-03-08T04:47:53.198Z,97082.12
2019-03-08T04:50:21.886Z,97095.92
2019-03-08T04:52:50.584Z,97096.42
2019-03-08T04:55:19.358Z,97105.42
2019-03-08T04:57:48.397Z,97110.55
2019-03-08T05:00:17.920Z,97112.31
2019-03-08T05:02:46.875Z,97112.78
2019-03-08T05:05:16.061Z,97128.86
2019-03-08T05:07:44.804Z,97119.66
2019-03-08T05:10:14.572Z,97163.30
2019-03-08T05:12:43.684Z,97128.53
2019-03-08T05:15:12.881Z,97131.17
2019-03-08T05:17:41.895Z,97130.92
2019-03-08T05:20:10.743Z,97126.84
2019-03-08T05:22:39.551Z,97145.01
2019-03-08T05:25:08.432Z,97152.83
2019-03-08T05:27:37.443Z,97159.95
2019-03-08T05:30:07.300Z,97150.52
2019-03-08T05:32:36.228Z,97165.05
2019-03-08T05:35:05.757Z,97161.30
2019-03-08T05:37:34.470Z,97181.53
2019-03-08T05:40:03.527Z,97185.12
2019-03-08T05:42:32.251Z,97181.28
2019-03-08T05:45:01.206Z,97184.06
2019-03-08T05:47:30.157Z,97201.91
2019-03-08T05:49:58.851Z,97189.20
2019-03-08T05:52:27.575Z,97201.10
2019-03-08T05:54:56.321Z,97217.73
2019-03-08T05:57:25.023Z,97221.84
2019-03-08T05:59:54.222Z,97216.02
2019-03-08T06:02:23.192Z,97225.30
2019-03-08T06:04:51.911Z,97231.91
2019-03-08T06:07:20.608Z,97235.66
2019-03-08T06:09:49.313Z,97244.94
2019-03-08T06:12:18.037Z,97249.37
2019-03-08T06:14:46.874Z,97259.77
2019-03-08T06:17:15.846Z,97249.52
2019-03-08T06:19:44.541Z,97252.23
2019-03-08T06:22:13.498Z,97280.14
2019-03-08T06:24:42.182Z,97263.77
2019-03-08T06:27:11.293Z,97268.65
2019-03-08T06:29:40.860Z,97293.83
2019-03-08T06:32:09.642Z,97304.84
2019-03-08T06:34:38.343Z,97317.00
2019-03-08T06:37:07.042Z,97211.41
2019-03-08T06:39:35.742Z,97320.23
2019-03-08T06:42:04.635Z,97318.36
2019-03-08T06:44:34.104Z,97335.11
2019-03-08T06:47:03.089Z,97335.91
2019-03-08T06:49:31.798Z,97343.26
2019-03-08T06:52:00.975Z,97360.37
2019-03-08T06:54:30.946Z,97361.33
2019-03-08T06:56:59.638Z,97371.72
2019-03-08T06:59:38.686Z,97380.23
2019-03-08T07:02:07.688Z,97398.90
2019-03-08T07:04:36.916Z,97407.05
2019-03-08T07:07:05.612Z,97401.36
2019-03-08T07:09:34.590Z,97409.89
2019-03-08T07:12:03.603Z,97418.43
2019-03-08T07:14:32.293Z,97429.42
2019-03-08T07:17:01.338Z,97439.83
2019-03-08T07:19:30.053Z,97443.93
2019-03-08T07:22:10.713Z,97458.66
2019-03-08T07:24:58.754Z,97478.83
2019-03-08T07:27:51.422Z,97473.72
2019-03-08T07:30:39.139Z,97472.36
2019-03-08T07:33:23.978Z,97483.22
2019-03-08T07:36:01.238Z,97484.84
2019-03-08T07:38:43.532Z,97495.70
2019-03-08T07:41:29.887Z,97506.55
2019-03-08T07:44:07.245Z,97519.00
2019-03-08T07:46:48.588Z,97521.60
2019-03-08T07:49:35.111Z,97539.25
2019-03-08T07:52:21.774Z,97567.60
2019-03-08T07:55:05.821Z,97572.59
2019-03-08T07:57:40.390Z,97574.60
2019-03-08T08:00:18.650Z,97589.59
2019-03-08T08:03:03.275Z,97584.92
2019-03-08T08:05:43.045Z,97602.94
2019-03-08T08:08:30.041Z,97603.53
2019-03-08T08:11:16.945Z,97607.70
2019-03-08T08:13:57.397Z,97623.95
2019-03-08T08:16:43.856Z,97627.97
2019-03-08T08:19:22.121Z,97647.14
2019-03-08T08:22:25.015Z,97647.95
2019-03-08T08:25:01.942Z,97655.45
2019-03-08T08:27:49.491Z,97653.23
2019-03-08T08:30:34.730Z,97658.93
2019-03-08T08:33:34.852Z,97673.48
2019-03-08T08:36:11.803Z,97678.33
2019-03-08T08:38:58.045Z,97684.80
2019-03-08T08:41:49.074Z,97681.66
2019-03-08T08:44:43.283Z,97694.33
2019-03-08T08:47:34.467Z,97695.86
2019-03-08T08:50:10.385Z,97695.50
2019-03-08T08:52:59.741Z,97705.22
2019-03-08T08:55:59.490Z,97720.69
2019-03-08T08:58:42.644Z,97760.03
2019-03-08T09:01:36.740Z,97752.55
2019-03-08T09:04:23.140Z,97764.39
2019-03-08T09:07:09.618Z,97769.03
2019-03-08T09:09:56.165Z,97766.39
2019-03-08T09:12:35.756Z,97781.09
2019-03-08T09:15:16.758Z,97789.50
2019-03-08T09:18:04.498Z,97799.42
2019-03-08T09:20:52.247Z,97808.33
2019-03-08T09:23:43.208Z,97788.59
2019-03-08T09:26:27.272Z,97799.05
2019-03-08T09:29:05.770Z,97810.53
2019-03-08T09:31:50.160Z,97814.84
2019-03-08T09:34:25.297Z,97815.23
2019-03-08T09:37:06.365Z,97820.17
2019-03-08T09:39:53.070Z,97820.25
2019-03-08T09:42:47.013Z,97824.55
2019-03-08T09:45:33.554Z,97832.00
2019-03-08T09:48:14.413Z,97841.78
2019-03-08T09:50:58.353Z,97839.98
2019-03-08T09:53:36.958Z,97844.95
2019-03-08T09:56:21.936Z,97852.83
2019-03-08T09:59:31.159Z,97860.66
2019-03-08T10:02:13.022Z,97868.41
2019-03-08T10:05:02.274Z,97879.49
2019-03-08T10:07:37.426Z,97881.04
2019-03-08T10:10:31.456Z,97881.80
2019-03-08T10:13:20.296Z,97879.85
2019-03-08T10:16:02.315Z,97886.86
2019-03-08T10:18:55.982Z,97897.33
2019-03-08T10:22:02.794Z,97893.20
2019-03-08T10:24:53.800Z,97904.48
2019-03-08T10:27:40.624Z,97912.73
2019-03-08T10:30:28.593Z,97913.72
2019-03-08T10:33:10.261Z,97922.19
2019-03-08T10:35:56.889Z,97928.62
2019-03-08T10:38:46.315Z,97933.50
2019-03-08T10:41:32.958Z,97937.13
2019-03-08T10:44:30.450Z,97941.20
2019-03-08T10:47:06.060Z,97938.30
2019-03-08T10:49:55.318Z,97955.27
2019-03-08T10:52:54.847Z,97959.44
2019-03-08T10:55:42.504Z,97958.45
2019-03-08T10:58:32.704Z,97964.59
2019-03-08T11:01:19.612Z,97970.43
2019-03-08T11:04:06.298Z,97967.87
2019-03-08T11:06:51.686Z,97972.83
2019-03-08T11:09:46.266Z,97976.46
2019-03-08T11:12:27.389Z,97974.92
2019-03-08T11:15:24.988Z,97983.55
2019-03-08T11:18:25.559Z,97983.42
2019-03-08T11:21:15.012Z,97983.04
2019-03-08T11:23:51.668Z,97986.86
2019-03-08T11:26:28.007Z,97985.77
2019-03-08T11:29:14.749Z,98000.59
2019-03-08T11:32:02.531Z,98015.41
2019-03-08T11:34:41.775Z,98018.03
2019-03-08T11:37:24.207Z,98019.11
2019-03-08T11:40:01.411Z,98027.92
2019-03-08T11:42:51.632Z,98034.16
2019-03-08T11:45:31.060Z,98056.58
2019-03-08T11:48:36.789Z,98087.87
2019-03-08T11:51:30.863Z,98099.42
2019-03-08T11:54:40.523Z,98051.93
2019-03-08T11:57:09.949Z,98097.05
2019-03-08T11:59:57.686Z,98099.83
2019-03-08T12:02:39.487Z,98098.34
2019-03-08T12:05:22.457Z,98099.72
2019-03-08T12:08:00.844Z,98118.01
2019-03-08T12:10:37.465Z,98117.12
2019-03-08T12:13:32.338Z,98126.51
2019-03-08T12:16:19.121Z,98120.14
2019-03-08T12:18:58.523Z,98124.17
2019-03-08T12:21:47.128Z,98128.52
2019-03-08T12:24:24.940Z,98122.00
2019-03-08T12:27:09.286Z,98135.30
2019-03-08T12:29:57.044Z,98130.00
2019-03-08T12:32:34.447Z,98132.54
2019-03-08T12:35:21.617Z,98136.00
2019-03-08T12:37:56.195Z,98134.47
2019-03-08T12:40:38.877Z,98141.55
2019-03-08T12:43:35.687Z,98136.33
2019-03-08T12:46:17.361Z,98141.14
2019-03-08T12:49:01.898Z,98153.20
2019-03-08T12:51:49.958Z,98147.27
2019-03-08T12:54:30.524Z,98155.93
2019-03-08T12:57:16.977Z,98159.33
2019-03-08T13:00:23.141Z,98186.54
2019-03-08T13:03:07.523Z,98186.27
2019-03-08T13:05:46.459Z,98185.95
2019-03-08T13:08:21.903Z,98174.66
2019-03-08T13:10:50.617Z,98180.33
2019-03-08T13:13:19.582Z,98181.69
2019-03-08T13:15:48.297Z,98181.38
2019-03-08T13:18:17.333Z,98176.05
2019-03-08T13:20:46.243Z,98180.01
2019-03-08T13:23:14.938Z,98172.91
2019-03-08T13:25:43.693Z,98174.91
2019-03-08T13:28:12.475Z,98176.35
2019-03-08T13:30:41.280Z,98175.66
2019-03-08T13:33:09.989Z,98174.84
2019-03-08T13:35:38.914Z,98181.59
2019-03-08T13:38:07.870Z,98170.94
2019-03-08T13:40:36.593Z,98174.21
2019-03-08T13:43:05.412Z,98170.81
2019-03-08T13:45:34.654Z,98184.59
2019-03-08T13:48:03.688Z,98186.28
2019-03-08T13:50:32.575Z,98189.09
2019-03-08T13:53:01.510Z,98179.83
2019-03-08T13:55:30.310Z,98194.23
2019-03-08T13:57:59.326Z,98189.55
2019-03-08T14:00:28.095Z,98192.53
2019-03-08T14:03:00.349Z,98186.75
2019-03-08T14:05:29.057Z,98198.12
2019-03-08T14:07:58.025Z,98205.83
2019-03-08T14:10:26.729Z,98203.87
2019-03-08T14:12:55.769Z,98213.12
2019-03-08T14:15:24.489Z,98217.87
2019-03-08T14:17:53.702Z,98219.05
2019-03-08T14:20:22.431Z,98213.38
2019-03-08T14:22:51.494Z,98211.75
2019-03-08T14:25:20.173Z,98214.19
2019-03-08T14:27:48.862Z,98216.64
2019-03-08T14:30:18.425Z,98212.08
2019-03-08T14:32:47.211Z,98219.21
2019-03-08T14:35:16.086Z,98212.23
2019-03-08T14:37:45.020Z,98216.53
2019-03-08T14:40:36.542Z,98215.43
2019-03-08T14:43:16.980Z,98213.00
2019-03-08T14:45:51.426Z,98217.45
2019-03-08T14:48:20.396Z,98214.30
2019-03-08T14:50:49.344Z,98219.37
2019-03-08T14:53:18.243Z,98222.39
2019-03-08T14:55:47.002Z,98221.53
2019-03-08T14:58:15.963Z,98227.20
2019-03-08T15:00:44.666Z,98228.73
2019-03-08T15:03:13.486Z,98236.03
2019-03-08T15:05:42.800Z,98241.91
2019-03-08T15:08:13.754Z,98251.00
2019-03-08T15:10:43.482Z,98252.47
2019-03-08T15:13:12.867Z,98252.59
2019-03-08T15:15:44.691Z,98265.25
2019-03-08T15:18:14.684Z,98262.48
2019-03-08T15:20:43.592Z,98266.37
2019-03-08T15:23:13.390Z,98266.77
2019-03-08T15:25:45.305Z,98260.20
2019-03-08T15:28:13.682Z,98267.67
2019-03-08T15:30:42.971Z,98263.43
2019-03-08T15:33:11.927Z,98267.19
2019-03-08T15:35:40.625Z,98268.88
2019-03-08T15:38:10.100Z,98277.81
2019-03-08T15:40:39.039Z,98271.59
2019-03-08T15:43:09.797Z,98268.88
2019-03-08T15:45:40.032Z,98273.95
2019-03-08T15:48:11.020Z,98275.62
2019-03-08T15:50:42.793Z,98272.53
2019-03-08T15:53:10.081Z,98275.34
2019-03-08T15:55:38.767Z,98297.70
2019-03-08T15:58:07.504Z,98305.86
2019-03-08T16:00:37.176Z,98296.89
2019-03-08T16:03:05.940Z,98297.41
2019-03-08T16:05:34.651Z,98295.98
2019-03-08T16:08:04.000Z,98297.84
2019-03-08T16:10:32.817Z,98298.63
2019-03-08T16:13:02.778Z,98300.50
2019-03-08T16:15:31.776Z,98303.48
2019-03-08T16:18:00.959Z,98297.55
2019-03-08T16:20:29.978Z,98299.41
2019-03-08T16:22:58.671Z,98294.25
2019-03-08T16:25:27.439Z,98299.61
2019-03-08T16:27:56.149Z,98296.90
2019-03-08T16:30:29.921Z,98299.55
2019-03-08T16:33:20.006Z,98302.50
2019-03-08T16:36:10.518Z,98298.97
2019-03-08T16:38:55.175Z,98307.70
2019-03-08T16:41:30.262Z,98308.00
2019-03-08T16:44:16.650Z,98303.95
2019-03-08T16:46:52.126Z,98305.38
2019-03-08T16:49:34.744Z,98312.50
2019-03-08T16:52:20.849Z,98293.78
2019-03-08T16:55:11.882Z,98298.19
2019-03-08T16:57:52.310Z,98304.47
2019-03-08T17:00:40.435Z,98301.54
2019-03-08T17:03:43.665Z,98305.64
2019-03-08T17:06:29.366Z,98310.27
2019-03-08T17:09:06.575Z,98304.02
2019-03-08T17:11:43.835Z,98300.45
2019-03-08T17:14:20.162Z,98301.30
2019-03-08T17:17:17.067Z,98303.52
2019-03-08T17:20:10.568Z,98306.24
2019-03-08T17:22:48.886Z,98307.14
2019-03-08T17:25:36.585Z,98307.25
2019-03-08T17:28:25.260Z,98304.80
2019-03-08T17:31:16.040Z,98308.38
2019-03-08T17:34:16.050Z,98302.92
2019-03-08T17:36:55.730Z,98301.59
2019-03-08T17:39:36.952Z,98295.92
2019-03-08T17:42:19.218Z,98293.28
2019-03-08T17:45:03.491Z,98291.13
2019-03-08T17:47:44.670Z,98286.52
2019-03-08T17:50:23.976Z,98302.02
2019-03-08T17:53:17.713Z,98306.14
2019-03-08T17:55:55.813Z,98305.12
2019-03-08T17:58:49.493Z,98299.73
2019-03-08T18:01:34.400Z,98308.44
2019-03-08T18:04:25.166Z,98307.36
2019-03-08T18:07:00.667Z,98305.45
2019-03-08T18:09:42.722Z,98305.44
2019-03-08T18:12:20.244Z,98309.98
2019-03-08T18:15:14.221Z,98304.45
2019-03-08T18:18:05.098Z,98306.61
2019-03-08T18:20:52.814Z,98300.09
2019-03-08T18:23:37.836Z,98303.33
2019-03-08T18:26:20.935Z,98300.61
2019-03-08T18:29:01.720Z,98300.56
2019-03-08T18:31:41.873Z,98294.61
2019-03-08T18:34:25.835Z,98298.17
2019-03-08T18:37:05.442Z,98302.76
2019-03-08T18:39:53.167Z,98303.33
2019-03-08T18:42:46.771Z,98307.13
2019-03-08T18:45:26.633Z,98304.98
2019-03-08T18:48:23.273Z,98313.67
2019-03-08T18:51:23.527Z,98304.70
2019-03-08T18:54:23.802Z,98313.11
2019-03-08T18:57:17.508Z,98310.06
2019-03-08T18:59:53.421Z,98314.63
2019-03-08T19:02:46.122Z,98304.53
2019-03-08T19:05:32.294Z,98299.83
2019-03-08T19:08:14.670Z,98294.08
2019-03-08T19:10:54.382Z,98290.00
2019-03-08T19:13:33.028Z,98289.42
2019-03-08T19:16:25.901Z,98292.66
2019-03-08T19:19:12.427Z,98292.63
2019-03-08T19:21:56.256Z,98284.72
2019-03-08T19:24:47.162Z,98279.02
2019-03-08T19:27:33.987Z,98280.59
2019-03-08T19:30:21.710Z,98277.09
2019-03-08T19:33:15.557Z,98269.20
2019-03-08T19:35:58.538Z,98277.87
2019-03-08T19:38:33.000Z,98274.04
2019-03-08T19:41:23.867Z,98276.94
2019-03-08T19:44:04.469Z,98278.02
2019-03-08T19:46:51.426Z,98269.53
2019-03-08T19:49:30.970Z,98274.16
2019-03-08T19:52:15.397Z,98267.66
2019-03-08T19:55:11.106Z,98280.50
2019-03-08T19:57:55.479Z,98277.87
2019-03-08T20:00:35.514Z,98278.50
2019-03-08T20:03:11.291Z,98271.23
2019-03-08T20:05:48.140Z,98272.61
2019-03-08T20:08:45.120Z,98260.12
2019-03-08T20:11:20.259Z,98264.44
2019-03-08T20:14:14.469Z,98260.84
2019-03-08T20:17:01.000Z,98257.62
2019-03-08T20:19:52.590Z,98255.17
2019-03-08T20:22:46.756Z,98252.45
2019-03-08T20:25:23.063Z,98250.52
2019-03-08T20:28:03.874Z,98241.32
2019-03-08T20:30:56.954Z,98240.23
2019-03-08T20:33:40.177Z,98242.89
2019-03-08T20:36:22.390Z,98242.04
2019-03-08T20:39:08.302Z,98251.28
2019-03-08T20:41:57.557Z,98237.87
2019-03-08T20:44:36.352Z,98235.36
2019-03-08T20:47:08.997Z,98226.42
2019-03-08T20:49:37.671Z,98229.11
2019-03-08T20:52:06.479Z,98228.77
2019-03-08T20:54:35.746Z,98228.27
2019-03-08T20:57:04.647Z,98222.89
2019-03-08T20:59:33.587Z,98223.47
2019-03-08T21:02:05.618Z,98221.33
2019-03-08T21:04:34.224Z,98226.77
2019-03-08T21:07:03.541Z,98228.39
2019-03-08T21:09:32.187Z,98231.11
2019-03-08T21:12:01.229Z,98230.53
2019-03-08T21:14:30.788Z,98230.80
2019-03-08T21:16:59.482Z,98221.77
2019-03-08T21:19:28.213Z,98229.21
2019-03-08T21:21:57.400Z,98224.08
2019-03-08T21:24:26.095Z,98232.00
2019-03-08T21:26:54.777Z,98225.41
2019-03-08T21:29:23.830Z,98223.70
2019-03-08T21:31:52.760Z,98217.37
2019-03-08T21:34:21.736Z,98217.88
2019-03-08T21:36:50.752Z,98215.98
2019-03-08T21:39:19.466Z,98217.58
2019-03-08T21:41:48.323Z,98210.70
2019-03-08T21:44:17.387Z,98214.58
2019-03-08T21:46:46.136Z,98208.59
2019-03-08T21:49:14.841Z,98208.33
2019-03-08T21:51:43.866Z,98202.39
2019-03-08T21:54:13.508Z,98200.41
2019-03-08T21:56:42.718Z,98199.59
2019-03-08T21:59:11.420Z,98198.89
2019-03-08T22:01:40.416Z,98193.69
2019-03-08T22:04:15.154Z,98198.55
2019-03-08T22:06:43.838Z,98185.69
2019-03-08T22:09:24.274Z,98186.50
2019-03-08T22:11:52.960Z,98183.28
2019-03-08T22:14:21.705Z,98174.93
2019-03-08T22:16:50.403Z,98177.92
2019-03-08T22:19:19.360Z,98170.27
2019-03-08T22:21:48.112Z,98171.63
2019-03-08T22:24:17.126Z,98164.48
2019-03-08T22:26:45.820Z,98163.13
2019-03-08T22:29:14.836Z,98146.58
2019-03-08T22:31:43.541Z,98149.25
2019-03-08T22:34:12.307Z,98142.73
2019-03-08T22:36:41.232Z,98139.42
2019-03-08T22:39:10.073Z,98129.33
2019-03-08T22:41:38.778Z,98113.01
2019-03-08T22:44:07.481Z,98122.26
2019-03-08T22:46:44.970Z,98123.88
2019-03-08T22:49:06.770Z,98103.23
2019-03-08T22:51:35.541Z,98094.48
2019-03-08T22:54:04.663Z,98089.86
2019-03-08T22:56:33.358Z,98084.73
2019-03-08T22:59:02.566Z,98070.36
2019-03-08T23:01:42.530Z,98067.05
2019-03-08T23:04:11.266Z,98065.42
2019-03-08T23:06:39.972Z,98058.72
2019-03-08T23:09:11.108Z,98062.02
2019-03-08T23:11:40.067Z,98052.01
2019-03-08T23:14:09.050Z,98056.94
2019-03-08T23:16:37.748Z,98043.34
2019-03-08T23:19:06.758Z,98037.64
2019-03-08T23:21:36.664Z,98033.83
2019-03-08T23:24:05.789Z,98040.63
2019-03-08T23:26:50.135Z,98042.22
2019-03-08T23:29:27.405Z,98029.16
2019-03-08T23:32:16.317Z,98027.18
2019-03-08T23:34:44.985Z,98033.74
2019-03-08T23:37:13.681Z,98028.54
2019-03-08T23:39:42.375Z,98029.58
2019-03-08T23:42:12.059Z,98030.98
2019-03-08T23:44:41.039Z,98019.55
2019-03-08T23:47:09.771Z,98012.49
2019-03-08T23:49:38.743Z,98014.36
2019-03-08T23:52:07.445Z,98010.28
2019-03-08T23:54:36.137Z,98005.34
2019-03-08T23:57:05.232Z,98010.55
2019-03-08T23:59:33.925Z,97991.84
